Weather at George Best Belfast City Airport

Public forecast

Using degrees Celsius for public forecast. Weather courtesy of forecast.io.

Current aviation weather report (METAR) for George Best Belfast City Airport

2024/02/24 08:20 (retrieved 40 minutes ago)

EGAC 240820Z AUTO 17003KT 120V200 7000 R22/0800N BKN001 BKN005 02/01 Q0992

Closest aviation forecast (TAF) to George Best Belfast City Airport

Closest forecast is Belfast International Airport, 12.2 nm (22.5 km) WNW.

2024/02/24 06:00 (retrieved 3 hours ago)

TAF EGAA 240500Z 2406/2506 23007KT 9999 SCT030 TEMPO 2406/2411 BKN003 PROB30 TEMPO 2411/2412 BKN012 PROB40 TEMPO 2413/2417 8000 SHRA PROB30 2423/2506 0300 FG VV///